Time;durP1;ratioP1;P1;durP2;ratioP2;P2;SDS_P1;SDS_P2;PMS_P1;PMS_P2;Temp;Humidity;BMP_temperature;BMP_pressure;BME280_temperature;BME280_humidity;BME280_pressure;Samples;Min_cycle;Max_cycle;Signal;HPM_P1;HPM_P2
2024/03/15 00:01:02;;;;;;;1.13;1.00;;;10.20;99.90;;;;;;5098112;28;20959;-82
2024/03/15 00:03:29;;;;;;;2.07;1.40;;;10.10;99.90;;;;;;5098484;28;20987;-83
2024/03/15 00:05:57;;;;;;;2.40;1.47;;;10.10;99.90;;;;;;5099001;28;20537;-82
2024/03/15 00:08:24;;;;;;;1.70;1.20;;;10.00;99.90;;;;;;5098663;28;20503;-83
2024/03/15 00:10:51;;;;;;;1.50;1.37;;;10.00;99.90;;;;;;5098441;28;20447;-83
2024/03/15 00:13:18;;;;;;;1.77;1.03;;;10.00;99.90;;;;;;5098596;28;20443;-83
2024/03/15 00:15:44;;;;;;;1.63;0.90;;;10.00;99.90;;;;;;5098049;28;20443;-83
2024/03/15 00:18:11;;;;;;;1.73;1.10;;;10.00;99.90;;;;;;5098012;28;20983;-82
2024/03/15 00:20:38;;;;;;;1.50;1.20;;;10.00;99.90;;;;;;5097807;28;20434;-83
2024/03/15 00:23:07;;;;;;;1.40;1.30;;;10.00;99.90;;;;;;5097018;28;20475;-83
2024/03/15 00:25:34;;;;;;;1.50;1.20;;;10.10;99.90;;;;;;5096461;28;20947;-82
2024/03/15 00:28:03;;;;;;;2.93;1.07;;;10.10;99.90;;;;;;5096957;28;20514;-83
2024/03/15 00:30:29;;;;;;;2.37;1.03;;;10.00;99.90;;;;;;5098503;28;20908;-83
2024/03/15 00:32:57;;;;;;;1.40;1.30;;;10.00;99.90;;;;;;5097473;28;20462;-83
2024/03/15 00:35:24;;;;;;;2.23;1.27;;;10.00;99.90;;;;;;5096596;28;20472;-82
2024/03/15 00:37:51;;;;;;;1.80;1.50;;;10.00;99.90;;;;;;5097791;28;20467;-82
2024/03/15 00:40:18;;;;;;;2.73;2.07;;;10.10;99.90;;;;;;5097715;28;20442;-83
2024/03/15 00:42:45;;;;;;;1.00;1.00;;;10.10;99.90;;;;;;5097366;28;20474;-83
2024/03/15 00:45:12;;;;;;;2.17;1.17;;;10.00;99.90;;;;;;5097669;28;20428;-82
2024/03/15 00:47:39;;;;;;;3.23;1.80;;;10.10;99.90;;;;;;5097162;28;20466;-82
2024/03/15 00:50:06;;;;;;;2.00;1.53;;;10.00;99.90;;;;;;5097357;28;20928;-83
2024/03/15 00:52:33;;;;;;;1.47;1.37;;;10.00;99.90;;;;;;5096936;28;20443;-83
2024/03/15 00:55:00;;;;;;;2.50;1.00;;;10.00;99.90;;;;;;5097740;28;20431;-83
2024/03/15 00:57:27;;;;;;;1.47;1.20;;;10.00;99.90;;;;;;5097323;28;20490;-82
2024/03/15 00:59:53;;;;;;;4.83;1.40;;;9.90;99.90;;;;;;5096933;28;20816;-83
2024/03/15 01:02:20;;;;;;;1.87;1.10;;;9.90;99.90;;;;;;5096889;28;20482;-82
2024/03/15 01:04:47;;;;;;;2.53;1.20;;;9.90;99.90;;;;;;5097242;28;20427;-83
2024/03/15 01:07:14;;;;;;;1.20;1.10;;;10.00;99.90;;;;;;5100513;28;20451;-83
2024/03/15 01:09:41;;;;;;;2.07;1.40;;;9.90;99.90;;;;;;5099898;28;20446;-82
2024/03/15 01:12:08;;;;;;;1.23;1.13;;;9.90;99.90;;;;;;5100762;28;20477;-83
2024/03/15 01:14:34;;;;;;;2.60;0.90;;;9.90;99.90;;;;;;5100372;28;20434;-83
2024/03/15 01:17:01;;;;;;;1.60;1.50;;;9.90;99.90;;;;;;5100405;28;20450;-83
2024/03/15 01:19:32;;;;;;;1.37;1.27;;;9.90;99.90;;;;;;5100449;28;20474;-83
2024/03/15 01:21:59;;;;;;;1.60;1.00;;;9.90;99.90;;;;;;5104312;28;20463;-83
2024/03/15 01:24:26;;;;;;;1.00;1.00;;;9.90;99.90;;;;;;5110681;28;20432;-84
2024/03/15 01:26:53;;;;;;;5.23;2.27;;;9.90;99.90;;;;;;5110136;28;20507;-83
2024/03/15 01:29:20;;;;;;;2.50;1.40;;;9.90;99.90;;;;;;5104315;28;20462;-83
2024/03/15 01:31:46;;;;;;;1.27;1.20;;;9.90;99.90;;;;;;5104534;28;20443;-83
2024/03/15 01:34:13;;;;;;;1.10;1.00;;;9.90;99.90;;;;;;5103489;28;20446;-83
2024/03/15 01:36:40;;;;;;;1.30;1.17;;;9.90;99.90;;;;;;5103677;28;20435;-83
2024/03/15 01:39:07;;;;;;;5.60;1.90;;;9.90;99.90;;;;;;5103306;28;20463;-84
2024/03/15 01:41:34;;;;;;;1.80;1.20;;;9.90;99.90;;;;;;5103406;28;20423;-84
2024/03/15 01:44:01;;;;;;;1.27;1.17;;;9.90;99.90;;;;;;5102979;28;20478;-84
2024/03/15 01:46:29;;;;;;;6.07;1.60;;;9.90;99.90;;;;;;5103130;28;20431;-83
2024/03/15 01:48:55;;;;;;;1.27;1.07;;;9.90;99.90;;;;;;5102102;28;20471;-83
2024/03/15 01:51:22;;;;;;;1.23;0.90;;;9.90;99.90;;;;;;5102731;28;20435;-83
2024/03/15 01:53:49;;;;;;;0.73;0.73;;;9.90;99.90;;;;;;5102731;28;20935;-82
2024/03/15 01:56:17;;;;;;;1.77;1.53;;;9.80;99.90;;;;;;5102565;28;20430;-83
2024/03/15 01:58:44;;;;;;;1.10;0.90;;;9.80;99.90;;;;;;5101989;28;20979;-83
2024/03/15 02:01:11;;;;;;;3.37;1.70;;;9.80;99.90;;;;;;5102439;28;20439;-83
2024/03/15 02:03:37;;;;;;;1.70;0.87;;;9.80;99.90;;;;;;5102843;28;20475;-83
2024/03/15 02:06:05;;;;;;;3.77;1.63;;;9.70;99.90;;;;;;5102703;28;20442;-83
2024/03/15 02:08:33;;;;;;;2.93;1.00;;;9.70;99.90;;;;;;5102068;28;20248;-83
2024/03/15 02:11:00;;;;;;;1.20;1.10;;;9.70;99.90;;;;;;5099909;28;20956;-83
2024/03/15 02:13:27;;;;;;;1.33;1.20;;;9.60;99.90;;;;;;5100105;28;20415;-83
2024/03/15 02:15:54;;;;;;;1.50;1.30;;;9.60;99.90;;;;;;5100160;28;20440;-83
2024/03/15 02:18:21;;;;;;;0.93;0.93;;;9.60;99.90;;;;;;5101213;28;20462;-83
2024/03/15 02:20:47;;;;;;;1.10;1.00;;;9.70;99.90;;;;;;5101515;28;20967;-83
2024/03/15 02:23:15;;;;;;;1.57;1.17;;;9.70;99.90;;;;;;5101912;28;20463;-82
2024/03/15 02:25:42;;;;;;;0.87;0.87;;;9.70;99.90;;;;;;5101941;28;20851;-83
2024/03/15 02:28:09;;;;;;;1.73;0.90;;;9.60;99.90;;;;;;5101908;28;20463;-82
2024/03/15 02:30:36;;;;;;;0.73;0.73;;;9.60;99.90;;;;;;5102494;28;20451;-83
2024/03/15 02:33:03;;;;;;;1.17;1.00;;;9.60;99.90;;;;;;5101275;28;20435;-83
2024/03/15 02:35:30;;;;;;;1.40;0.80;;;9.60;99.90;;;;;;5102009;28;20443;-83
2024/03/15 02:37:57;;;;;;;1.30;1.20;;;9.50;99.90;;;;;;5101284;28;20480;-83
2024/03/15 02:40:24;;;;;;;1.30;1.17;;;9.50;99.90;;;;;;5101695;28;20442;-83
2024/03/15 02:42:51;;;;;;;1.87;0.70;;;9.50;99.90;;;;;;5100060;28;20470;-83
2024/03/15 02:45:18;;;;;;;0.90;0.77;;;9.50;99.90;;;;;;5100629;28;20800;-83
2024/03/15 02:47:46;;;;;;;4.97;1.40;;;9.50;99.90;;;;;;5100525;28;20455;-82
2024/03/15 02:50:13;;;;;;;1.87;0.90;;;9.50;99.90;;;;;;5101186;28;20526;-83
2024/03/15 02:52:39;;;;;;;1.00;0.80;;;9.40;99.90;;;;;;5101081;28;20439;-82
2024/03/15 02:55:06;;;;;;;1.80;1.23;;;9.40;99.90;;;;;;5101588;28;20435;-83
2024/03/15 02:57:33;;;;;;;1.77;1.00;;;9.50;99.90;;;;;;5099974;28;20509;-83
2024/03/15 03:00:00;;;;;;;1.87;1.30;;;9.40;99.90;;;;;;5099091;28;20419;-83
2024/03/15 03:02:27;;;;;;;1.80;0.90;;;9.40;99.90;;;;;;5101132;28;20483;-83
2024/03/15 03:04:54;;;;;;;1.80;1.00;;;9.40;99.90;;;;;;5100759;28;20508;-83
2024/03/15 03:07:21;;;;;;;1.97;1.47;;;9.40;99.90;;;;;;5100437;28;20976;-82
2024/03/15 03:09:48;;;;;;;1.30;1.10;;;9.50;99.90;;;;;;5099508;28;20447;-83
2024/03/15 03:12:14;;;;;;;0.80;0.80;;;9.40;99.90;;;;;;5101357;28;20443;-82
2024/03/15 03:14:42;;;;;;;1.80;0.83;;;9.40;99.90;;;;;;5100520;28;20469;-82
2024/03/15 03:17:09;;;;;;;1.03;0.60;;;9.40;99.90;;;;;;5100129;28;20435;-82
2024/03/15 03:19:36;;;;;;;1.20;1.00;;;9.40;99.90;;;;;;5108171;28;20435;-83
2024/03/15 03:22:03;;;;;;;1.73;1.00;;;9.40;99.90;;;;;;5101638;28;20789;-83
2024/03/15 03:24:30;;;;;;;1.27;0.80;;;9.40;99.90;;;;;;5101445;28;20490;-83
2024/03/15 03:26:57;;;;;;;1.20;1.00;;;9.40;99.90;;;;;;5101474;28;20502;-82
2024/03/15 03:29:23;;;;;;;0.90;0.90;;;9.40;99.90;;;;;;5100209;28;20446;-82
2024/03/15 03:31:51;;;;;;;0.80;0.60;;;9.40;99.90;;;;;;5100060;28;20442;-82
2024/03/15 03:34:18;;;;;;;1.33;0.90;;;9.40;99.90;;;;;;5106358;28;20443;-83
2024/03/15 03:36:44;;;;;;;2.47;0.83;;;9.50;99.90;;;;;;5112280;28;20435;-83
2024/03/15 03:39:13;;;;;;;0.73;0.70;;;9.50;99.90;;;;;;5112210;28;20466;-83
2024/03/15 03:41:40;;;;;;;1.00;0.90;;;9.50;99.90;;;;;;5112461;28;20427;-83
2024/03/15 03:44:07;;;;;;;2.37;0.93;;;9.50;99.90;;;;;;5113010;28;20474;-83
2024/03/15 03:46:34;;;;;;;0.60;0.60;;;9.50;99.90;;;;;;5112253;28;20472;-83
2024/03/15 03:49:01;;;;;;;0.90;0.70;;;9.60;99.90;;;;;;5113676;28;20467;-83
2024/03/15 03:51:27;;;;;;;3.20;0.70;;;9.70;99.90;;;;;;5112373;28;20443;-83
2024/03/15 03:53:56;;;;;;;1.17;0.87;;;9.70;99.90;;;;;;5103287;28;20439;-83
2024/03/15 03:56:23;;;;;;;1.63;0.90;;;9.80;99.90;;;;;;5103361;28;20449;-82
2024/03/15 03:58:50;;;;;;;0.77;0.70;;;9.80;99.90;;;;;;5102328;28;20489;-82
2024/03/15 04:01:16;;;;;;;2.17;0.80;;;9.80;99.90;;;;;;5102757;28;20799;-82
2024/03/15 04:03:43;;;;;;;0.90;0.90;;;9.90;99.90;;;;;;5100496;28;20548;-82
2024/03/15 04:06:10;;;;;;;1.57;1.07;;;9.90;99.90;;;;;;5101034;28;20435;-82
2024/03/15 04:08:37;;;;;;;1.00;0.90;;;9.90;99.90;;;;;;5100909;28;20481;-82
2024/03/15 04:11:04;;;;;;;1.10;0.90;;;10.00;99.90;;;;;;5101623;28;20510;-82
2024/03/15 04:13:31;;;;;;;0.80;0.80;;;10.00;99.90;;;;;;5100278;28;20438;-82
2024/03/15 04:15:58;;;;;;;1.30;0.83;;;10.00;99.90;;;;;;5100961;28;20446;-82
2024/03/15 04:18:25;;;;;;;0.63;0.63;;;10.00;99.90;;;;;;5100713;28;20470;-82
2024/03/15 04:20:52;;;;;;;0.83;0.83;;;10.00;99.90;;;;;;5099600;28;20439;-82
2024/03/15 04:23:20;;;;;;;0.70;0.70;;;10.00;99.90;;;;;;5099187;28;20467;-82
2024/03/15 04:25:48;;;;;;;2.70;0.83;;;10.00;99.90;;;;;;5101221;28;20454;-82
2024/03/15 04:28:18;;;;;;;1.40;0.83;;;10.00;99.90;;;;;;5100586;28;20486;-82
2024/03/15 04:30:45;;;;;;;2.03;0.77;;;10.00;99.90;;;;;;5101820;28;20435;-82
2024/03/15 04:33:12;;;;;;;0.60;0.60;;;10.10;99.90;;;;;;5101148;28;20492;-82
2024/03/15 04:35:40;;;;;;;1.57;0.70;;;10.10;99.90;;;;;;5100485;28;20790;-82
2024/03/15 04:38:08;;;;;;;0.90;0.80;;;10.10;99.90;;;;;;5100152;28;20467;-82
2024/03/15 04:40:35;;;;;;;1.07;0.87;;;10.10;99.90;;;;;;5100685;28;20878;-83
2024/03/15 04:43:02;;;;;;;1.73;0.80;;;10.00;99.90;;;;;;5102257;28;20478;-82
2024/03/15 04:45:29;;;;;;;0.80;0.80;;;10.00;99.90;;;;;;5102920;28;20449;-82
2024/03/15 04:47:57;;;;;;;1.13;0.70;;;10.00;99.90;;;;;;5102330;28;20473;-82
2024/03/15 04:50:24;;;;;;;2.83;0.70;;;10.00;99.90;;;;;;5103642;28;20439;-82
2024/03/15 04:52:52;;;;;;;0.63;0.60;;;10.00;99.90;;;;;;5103242;28;20939;-82
2024/03/15 04:55:20;;;;;;;0.80;0.80;;;10.00;99.90;;;;;;5102677;28;20982;-82
2024/03/15 04:57:47;;;;;;;1.53;0.60;;;10.00;99.90;;;;;;5102917;28;20466;-82
2024/03/15 05:00:18;;;;;;;1.20;0.80;;;10.00;99.90;;;;;;5103171;28;20478;-82
2024/03/15 05:02:46;;;;;;;1.10;0.80;;;9.90;99.90;;;;;;5104074;28;20950;-82
2024/03/15 05:05:14;;;;;;;0.70;0.70;;;9.90;99.90;;;;;;5102472;28;20831;-82
2024/03/15 05:07:42;;;;;;;0.63;0.60;;;9.90;99.90;;;;;;5102827;28;20463;-82
2024/03/15 05:10:11;;;;;;;0.90;0.90;;;9.80;99.90;;;;;;5101362;28;20439;-82
2024/03/15 05:12:38;;;;;;;1.10;1.00;;;9.80;99.90;;;;;;5102246;28;20435;-82
2024/03/15 05:15:06;;;;;;;0.70;0.70;;;9.80;99.90;;;;;;5110409;28;20440;-83
2024/03/15 05:17:32;;;;;;;0.87;0.87;;;9.80;99.90;;;;;;5103538;28;20828;-82
2024/03/15 05:19:59;;;;;;;0.60;0.60;;;9.80;99.90;;;;;;5103664;28;20443;-83
2024/03/15 05:22:27;;;;;;;0.60;0.60;;;9.80;99.90;;;;;;5103894;28;20435;-82
2024/03/15 05:24:54;;;;;;;0.57;0.57;;;9.70;99.90;;;;;;5102810;28;20478;-83
2024/03/15 05:27:21;;;;;;;0.70;0.70;;;9.70;99.90;;;;;;5103996;28;20459;-83
2024/03/15 05:29:48;;;;;;;1.60;0.80;;;9.70;99.90;;;;;;5102228;28;20970;-82
2024/03/15 05:32:16;;;;;;;1.43;1.10;;;9.70;99.90;;;;;;5102533;28;20435;-83
2024/03/15 05:34:42;;;;;;;0.80;0.70;;;9.60;99.90;;;;;;5102600;28;20553;-82
2024/03/15 05:37:09;;;;;;;1.43;0.63;;;9.60;99.90;;;;;;5102249;28;20439;-83
2024/03/15 05:39:37;;;;;;;1.47;0.60;;;9.60;99.90;;;;;;5101894;28;20447;-83
2024/03/15 05:42:04;;;;;;;0.97;0.73;;;9.60;99.90;;;;;;5102596;28;20439;-82
2024/03/15 05:44:31;;;;;;;4.43;1.13;;;9.60;99.90;;;;;;5101604;28;20493;-82
2024/03/15 05:46:58;;;;;;;0.57;0.57;;;9.50;99.90;;;;;;5100362;28;20435;-83
2024/03/15 05:49:25;;;;;;;5.33;0.77;;;9.40;99.90;;;;;;5101567;28;20439;-83
2024/03/15 05:51:52;;;;;;;2.43;0.83;;;9.40;99.90;;;;;;5100987;28;20423;-82
2024/03/15 05:54:19;;;;;;;0.63;0.63;;;9.40;99.90;;;;;;5099938;28;20450;-82
2024/03/15 05:56:45;;;;;;;0.60;0.60;;;9.40;99.90;;;;;;5101250;28;20439;-82
2024/03/15 05:59:12;;;;;;;1.83;0.97;;;9.40;99.90;;;;;;5105585;27;20478;-82
2024/03/15 06:01:40;;;;;;;0.70;0.50;;;9.40;99.90;;;;;;5119359;27;20438;-82
2024/03/15 06:04:10;;;;;;;2.70;1.17;;;9.40;99.90;;;;;;5121131;27;20473;-82
2024/03/15 06:06:40;;;;;;;2.10;0.80;;;9.40;99.90;;;;;;5123286;27;20454;-82
2024/03/15 06:09:09;;;;;;;1.30;0.73;;;9.40;99.90;;;;;;5122050;27;20880;-82
2024/03/15 06:11:36;;;;;;;3.43;1.10;;;9.40;99.90;;;;;;5121184;27;20442;-82
2024/03/15 06:14:03;;;;;;;0.70;0.70;;;9.50;99.90;;;;;;5121505;27;20430;-82
2024/03/15 06:16:31;;;;;;;1.53;0.80;;;9.50;99.90;;;;;;5121253;27;20438;-83
2024/03/15 06:18:58;;;;;;;0.60;0.60;;;9.50;99.90;;;;;;5120812;27;20462;-82
2024/03/15 06:21:26;;;;;;;0.60;0.60;;;9.60;99.90;;;;;;5121566;27;20434;-84
2024/03/15 06:23:53;;;;;;;1.57;0.60;;;9.60;99.90;;;;;;5122883;27;20478;-82
2024/03/15 06:26:22;;;;;;;0.60;0.60;;;9.60;99.90;;;;;;5120823;27;20441;-82
2024/03/15 06:28:49;;;;;;;0.90;0.77;;;9.70;99.90;;;;;;5120649;27;20474;-82
2024/03/15 06:31:16;;;;;;;1.07;0.90;;;9.70;99.90;;;;;;5120602;27;20805;-82
2024/03/15 06:33:43;;;;;;;1.00;0.70;;;9.70;99.90;;;;;;5122823;27;20442;-83
2024/03/15 06:36:16;;;;;;;0.80;0.80;;;9.70;99.90;;;;;;5121201;27;20434;-82
2024/03/15 06:38:53;;;;;;;1.60;0.97;;;9.70;99.90;;;;;;5121105;27;20472;-81
2024/03/15 06:41:29;;;;;;;0.80;0.77;;;9.70;99.90;;;;;;5121216;27;20415;-82
2024/03/15 06:44:09;;;;;;;1.30;0.73;;;9.70;99.90;;;;;;5121477;27;20468;-82
2024/03/15 06:47:04;;;;;;;1.10;1.00;;;9.70;99.90;;;;;;5123527;27;20434;-82
2024/03/15 06:49:43;;;;;;;1.20;0.90;;;9.70;99.90;;;;;;5122991;27;20469;-83
2024/03/15 06:54:55;;;;;;;1.90;1.43;;;9.80;99.90;;;;;;5123784;27;20974;-83
2024/03/15 06:57:22;;;;;;;1.67;0.87;;;9.90;99.90;;;;;;5119569;27;21030;-82
2024/03/15 06:59:49;;;;;;;1.43;0.83;;;10.00;99.90;;;;;;5119839;27;20479;-83
2024/03/15 07:02:16;;;;;;;1.10;1.00;;;10.00;99.90;;;;;;5121152;27;20447;-83
2024/03/15 07:04:44;;;;;;;0.80;0.80;;;10.10;99.90;;;;;;5121574;27;20484;-82
2024/03/15 07:07:13;;;;;;;1.07;1.00;;;10.20;99.90;;;;;;5121432;27;20466;-82
2024/03/15 07:09:41;;;;;;;1.03;1.00;;;10.30;99.90;;;;;;5126919;27;20492;-83
2024/03/15 07:12:08;;;;;;;0.80;0.73;;;10.40;99.90;;;;;;5120363;27;20483;-83
2024/03/15 07:14:34;;;;;;;2.20;0.97;;;10.60;99.90;;;;;;5122080;27;20422;-83
2024/03/15 07:17:03;;;;;;;2.23;1.40;;;10.80;99.90;;;;;;5121089;27;20431;-83
2024/03/15 07:19:32;;;;;;;0.60;0.60;;;11.00;99.90;;;;;;5121429;27;20446;-84
2024/03/15 07:21:59;;;;;;;0.83;0.83;;;11.10;99.90;;;;;;5121034;27;20446;-82
2024/03/15 07:24:26;;;;;;;1.33;0.97;;;11.30;99.90;;;;;;5121084;27;20481;-83
2024/03/15 07:26:54;;;;;;;1.07;0.97;;;11.30;99.90;;;;;;5120591;27;20437;-83
2024/03/15 07:29:21;;;;;;;1.73;1.07;;;11.30;99.90;;;;;;5121417;27;20462;-83
2024/03/15 07:31:48;;;;;;;0.70;0.70;;;11.30;99.90;;;;;;5120177;27;20545;-83
2024/03/15 07:34:15;;;;;;;1.97;0.63;;;11.50;99.90;;;;;;5120159;27;20434;-82
2024/03/15 07:36:42;;;;;;;0.50;0.50;;;11.50;99.90;;;;;;5120521;27;20435;-83
2024/03/15 07:39:09;;;;;;;0.77;0.77;;;11.50;99.90;;;;;;5120480;27;20992;-83
2024/03/15 07:41:37;;;;;;;1.00;0.53;;;11.40;99.90;;;;;;5118828;27;20466;-82
2024/03/15 07:44:04;;;;;;;0.63;0.63;;;11.40;99.90;;;;;;5120659;27;20523;-82
2024/03/15 07:46:32;;;;;;;0.90;0.90;;;11.60;99.90;;;;;;5119520;27;20430;-82
2024/03/15 07:48:59;;;;;;;5.53;1.30;;;11.60;99.90;;;;;;5119064;27;20992;-82
2024/03/15 07:51:27;;;;;;;2.70;0.80;;;11.70;99.90;;;;;;5117747;27;20437;-83
2024/03/15 07:53:53;;;;;;;0.80;0.80;;;11.80;99.90;;;;;;5119579;28;20530;-82
2024/03/15 07:56:21;;;;;;;0.87;0.87;;;11.80;99.90;;;;;;5119276;27;20434;-82
2024/03/15 07:58:52;;;;;;;2.30;0.90;;;11.90;99.90;;;;;;5119016;28;20488;-82
2024/03/15 08:01:19;;;;;;;1.47;0.70;;;12.00;99.90;;;;;;5120483;28;20434;-82
2024/03/15 08:03:46;;;;;;;1.30;0.70;;;12.10;99.90;;;;;;5121831;28;20541;-82
2024/03/15 08:06:15;;;;;;;1.10;0.90;;;12.20;99.90;;;;;;5119662;28;20483;-82
2024/03/15 08:08:42;;;;;;;0.80;0.80;;;12.30;99.90;;;;;;5118778;28;20462;-82
2024/03/15 08:11:11;;;;;;;0.93;0.80;;;12.40;99.90;;;;;;5118571;28;20791;-82
2024/03/15 08:13:38;;;;;;;0.97;0.97;;;12.60;99.90;;;;;;5118694;28;20444;-82
2024/03/15 08:16:18;;;;;;;0.83;0.83;;;12.70;99.90;;;;;;5121550;27;20854;-82
2024/03/15 08:18:47;;;;;;;1.63;0.90;;;12.80;99.90;;;;;;5123947;27;20462;-82
2024/03/15 08:21:14;;;;;;;1.80;0.80;;;13.00;99.90;;;;;;5121812;27;20442;-82
2024/03/15 08:23:42;;;;;;;1.43;0.73;;;13.00;99.90;;;;;;5122434;27;20430;-82
2024/03/15 08:26:09;;;;;;;1.00;0.80;;;13.10;99.90;;;;;;5122529;27;20480;-82
2024/03/15 08:28:36;;;;;;;1.27;1.03;;;13.30;99.90;;;;;;5122381;27;20966;-82
2024/03/15 08:31:04;;;;;;;1.00;0.70;;;13.40;99.90;;;;;;5122584;27;20433;-82
2024/03/15 08:33:31;;;;;;;1.50;1.40;;;13.50;99.90;;;;;;5121584;27;20811;-82
2024/03/15 08:35:57;;;;;;;1.23;0.90;;;13.70;99.90;;;;;;5123367;27;20430;-82
2024/03/15 08:38:24;;;;;;;1.57;1.30;;;13.80;99.90;;;;;;5122677;27;20446;-82
2024/03/15 08:40:52;;;;;;;1.03;0.93;;;14.00;99.90;;;;;;5122628;27;20491;-82
2024/03/15 08:43:19;;;;;;;1.17;1.00;;;14.20;99.90;;;;;;5123240;27;20438;-82
2024/03/15 08:45:49;;;;;;;0.90;0.80;;;14.40;99.90;;;;;;5122833;27;21072;-82
2024/03/15 08:48:17;;;;;;;1.10;1.00;;;14.60;99.90;;;;;;5122056;27;20506;-82
2024/03/15 08:50:46;;;;;;;1.10;1.00;;;14.80;99.90;;;;;;5122025;27;20446;-82
2024/03/15 08:53:13;;;;;;;1.03;0.80;;;14.90;99.90;;;;;;5120541;27;20442;-82
2024/03/15 08:55:42;;;;;;;1.30;1.10;;;15.00;99.90;;;;;;5121036;27;20445;-82
2024/03/15 08:58:09;;;;;;;0.80;0.80;;;15.30;99.90;;;;;;5121437;27;20481;-82
2024/03/15 09:00:38;;;;;;;0.90;0.90;;;15.40;99.90;;;;;;5123459;27;20450;-81
2024/03/15 09:03:05;;;;;;;0.80;0.80;;;15.60;99.90;;;;;;5123691;27;20467;-82
2024/03/15 09:05:32;;;;;;;0.80;0.60;;;15.80;99.90;;;;;;5122300;27;20481;-82
2024/03/15 09:07:59;;;;;;;0.90;0.77;;;16.10;99.90;;;;;;5132549;27;20473;-82
2024/03/15 09:10:27;;;;;;;0.97;0.83;;;16.40;99.90;;;;;;5124937;27;20442;-82
2024/03/15 09:12:53;;;;;;;0.80;0.80;;;16.80;99.90;;;;;;5125354;27;20453;-82
2024/03/15 09:15:22;;;;;;;3.07;1.47;;;17.60;99.90;;;;;;5124846;27;20465;-82
2024/03/15 09:17:50;;;;;;;1.40;0.87;;;18.90;99.90;;;;;;5124452;27;21059;-82
2024/03/15 09:20:19;;;;;;;1.20;1.13;;;20.50;99.90;;;;;;5124613;27;20488;-83
2024/03/15 09:22:48;;;;;;;1.47;0.73;;;21.60;99.90;;;;;;5124022;27;20438;-83
2024/03/15 09:25:18;;;;;;;1.90;1.00;;;22.50;99.90;;;;;;5123181;27;20466;-82
2024/03/15 09:27:46;;;;;;;0.87;0.87;;;23.60;99.90;;;;;;5122944;27;20468;-83
2024/03/15 09:30:17;;;;;;;0.70;0.70;;;24.80;99.90;;;;;;5123633;27;20200;-82
2024/03/15 09:32:44;;;;;;;0.98;0.98;;;25.70;97.00;;;;;;5121833;27;20188;-83
2024/03/15 09:35:13;;;;;;;1.10;1.00;;;25.90;92.50;;;;;;5122996;27;20196;-82
2024/03/15 09:37:46;;;;;;;0.70;0.60;;;26.50;92.40;;;;;;5122700;27;20277;-83
2024/03/15 09:40:15;;;;;;;1.33;0.80;;;27.30;90.20;;;;;;5126206;27;20189;-82
2024/03/15 09:42:42;;;;;;;0.70;0.70;;;28.10;85.40;;;;;;5132301;27;20204;-82
2024/03/15 09:45:10;;;;;;;1.08;0.70;;;28.80;80.00;;;;;;5133865;27;20231;-82
2024/03/15 09:47:38;;;;;;;0.65;0.65;;;28.60;76.20;;;;;;5131862;27;20793;-82
2024/03/15 09:50:05;;;;;;;0.68;0.60;;;28.70;75.90;;;;;;5133995;27;20198;-82
2024/03/15 09:52:33;;;;;;;0.73;0.73;;;29.20;72.80;;;;;;5128746;27;20661;-82
2024/03/15 09:55:00;;;;;;;0.80;0.77;;;29.00;69.90;;;;;;5122602;27;20210;-82
2024/03/15 09:57:28;;;;;;;0.50;0.50;;;28.30;69.70;;;;;;5121127;27;20329;-83
2024/03/15 09:59:55;;;;;;;1.77;0.90;;;26.80;72.50;;;;;;5124014;27;20218;-83
2024/03/15 10:02:22;;;;;;;0.60;0.60;;;25.30;73.30;;;;;;5124588;27;20223;-83
2024/03/15 10:04:50;;;;;;;0.60;0.60;;;23.50;77.30;;;;;;5124385;27;20307;-83
2024/03/15 10:07:17;;;;;;;0.57;0.50;;;22.10;81.70;;;;;;5123377;27;20735;-82
2024/03/15 10:09:47;;;;;;;0.60;0.60;;;21.00;86.30;;;;;;5123490;27;20206;-82
2024/03/15 10:12:14;;;;;;;1.13;0.50;;;20.20;89.50;;;;;;5122832;27;20200;-83
2024/03/15 10:14:41;;;;;;;2.77;0.50;;;19.60;90.50;;;;;;5123511;27;20426;-83
2024/03/15 10:17:09;;;;;;;0.50;0.50;;;19.10;91.80;;;;;;5123177;27;20973;-82
2024/03/15 10:19:36;;;;;;;0.90;0.60;;;18.70;92.50;;;;;;5122483;27;20938;-84
2024/03/15 10:22:06;;;;;;;0.70;0.70;;;18.50;93.70;;;;;;5121289;27;20446;-82
2024/03/15 10:24:33;;;;;;;0.60;0.60;;;18.30;94.60;;;;;;5121534;27;20437;-82
2024/03/15 10:27:00;;;;;;;0.57;0.57;;;18.10;95.60;;;;;;5121349;27;20437;-82
2024/03/15 10:29:27;;;;;;;0.70;0.70;;;17.80;96.90;;;;;;5121813;27;20491;-82
2024/03/15 10:31:54;;;;;;;0.60;0.60;;;17.60;98.90;;;;;;5123539;27;20446;-82
2024/03/15 10:34:21;;;;;;;5.27;0.73;;;17.20;99.90;;;;;;5121225;27;20449;-82
2024/03/15 10:36:49;;;;;;;1.17;0.83;;;17.00;99.90;;;;;;5122360;27;20430;-84
2024/03/15 10:39:16;;;;;;;0.70;0.70;;;16.60;99.90;;;;;;5120602;27;20462;-82
2024/03/15 10:41:44;;;;;;;0.60;0.60;;;16.30;99.90;;;;;;5123021;27;20446;-82
2024/03/15 10:44:11;;;;;;;1.23;0.63;;;16.10;99.90;;;;;;5121676;27;20442;-82
2024/03/15 10:46:38;;;;;;;0.60;0.60;;;15.90;99.90;;;;;;5120309;27;20489;-82
2024/03/15 10:49:05;;;;;;;0.87;0.80;;;15.70;99.90;;;;;;5119457;27;20460;-82
2024/03/15 10:51:32;;;;;;;1.43;0.90;;;15.60;99.90;;;;;;5120731;27;20454;-82
2024/03/15 10:53:59;;;;;;;1.27;1.10;;;15.60;99.90;;;;;;5120627;27;20438;-82
2024/03/15 10:56:26;;;;;;;0.63;0.63;;;15.60;99.90;;;;;;5121395;27;20439;-82
2024/03/15 10:58:53;;;;;;;0.60;0.60;;;15.80;99.90;;;;;;5120329;27;20477;-82
2024/03/15 11:01:21;;;;;;;1.83;0.60;;;16.10;99.90;;;;;;5131295;27;20443;-82
2024/03/15 11:03:48;;;;;;;0.67;0.60;;;16.80;99.90;;;;;;5124020;27;20442;-83
2024/03/15 11:06:15;;;;;;;0.70;0.70;;;17.80;99.90;;;;;;5122085;27;20853;-83
2024/03/15 11:08:42;;;;;;;0.60;0.60;;;18.30;99.90;;;;;;5121535;27;20450;-82
2024/03/15 11:11:10;;;;;;;1.67;0.70;;;18.60;99.90;;;;;;5121974;27;20441;-82
2024/03/15 11:13:37;;;;;;;3.80;0.90;;;18.60;99.90;;;;;;5122528;27;20495;-82
2024/03/15 11:16:17;;;;;;;0.60;0.60;;;18.70;99.90;;;;;;5121385;27;20988;-82
2024/03/15 11:18:44;;;;;;;1.07;0.73;;;18.80;99.90;;;;;;5122337;27;20483;-82
2024/03/15 11:21:20;;;;;;;2.60;0.70;;;19.00;99.90;;;;;;5123561;27;20441;-82
2024/03/15 11:23:47;;;;;;;0.83;0.77;;;19.20;99.90;;;;;;5123497;27;20418;-82
2024/03/15 11:26:14;;;;;;;0.70;0.70;;;19.40;99.90;;;;;;5122435;27;20477;-82
2024/03/15 11:28:41;;;;;;;0.67;0.60;;;19.70;99.90;;;;;;5121870;27;20464;-83
2024/03/15 11:31:19;;;;;;;1.00;0.90;;;19.90;99.90;;;;;;5124107;27;20441;-82
2024/03/15 11:33:46;;;;;;;0.83;0.60;;;20.10;99.90;;;;;;5124820;27;20437;-83
2024/03/15 11:36:13;;;;;;;0.80;0.80;;;20.10;99.90;;;;;;5121312;27;20848;-83
2024/03/15 11:38:45;;;;;;;3.00;0.70;;;20.00;99.90;;;;;;5120755;27;20460;-82
2024/03/15 11:41:12;;;;;;;0.87;0.63;;;19.90;99.90;;;;;;5119698;27;20440;-83
2024/03/15 11:43:39;;;;;;;0.63;0.63;;;19.70;99.90;;;;;;5120436;27;20452;-83
2024/03/15 11:46:08;;;;;;;0.93;0.70;;;19.40;99.90;;;;;;5119513;27;20476;-83
2024/03/15 11:48:35;;;;;;;0.50;0.50;;;19.20;99.90;;;;;;5119725;27;20460;-83
2024/03/15 11:51:02;;;;;;;0.57;0.57;;;19.20;99.90;;;;;;5119480;27;20446;-82
2024/03/15 11:53:29;;;;;;;0.50;0.50;;;19.10;99.90;;;;;;5119130;27;20437;-83
2024/03/15 11:55:57;;;;;;;2.00;0.60;;;19.10;99.90;;;;;;5119020;28;20441;-83
2024/03/15 11:58:24;;;;;;;0.60;0.57;;;19.00;99.90;;;;;;5120326;27;20496;-82
2024/03/15 12:00:51;;;;;;;0.60;0.60;;;18.90;99.90;;;;;;5102946;28;20457;-82
2024/03/15 12:03:17;;;;;;;1.73;0.50;;;18.80;99.90;;;;;;5119231;28;20519;-82
2024/03/15 12:05:44;;;;;;;1.10;1.10;;;18.50;99.90;;;;;;5118656;28;20474;-82
2024/03/15 12:08:13;;;;;;;0.53;0.50;;;18.40;99.90;;;;;;5119716;28;20489;-82
2024/03/15 12:10:40;;;;;;;0.60;0.60;;;18.40;99.90;;;;;;5118581;28;20441;-82
2024/03/15 12:13:14;;;;;;;0.60;0.60;;;18.20;99.90;;;;;;5119092;28;20495;-82
2024/03/15 12:15:41;;;;;;;1.13;0.70;;;18.10;99.90;;;;;;5118625;28;20483;-82
2024/03/15 12:18:08;;;;;;;2.30;0.53;;;18.00;99.90;;;;;;5119804;28;20819;-82
2024/03/15 12:20:35;;;;;;;0.80;0.50;;;17.90;99.90;;;;;;5120732;28;20927;-82
2024/03/15 12:23:02;;;;;;;0.60;0.60;;;17.90;99.90;;;;;;5118790;28;20434;-82
2024/03/15 12:25:29;;;;;;;0.50;0.50;;;18.00;99.90;;;;;;5119890;28;20449;-82
2024/03/15 12:27:56;;;;;;;2.40;0.70;;;17.90;99.90;;;;;;5119874;28;20459;-82
2024/03/15 12:30:22;;;;;;;0.70;0.70;;;17.90;99.90;;;;;;5118496;28;20810;-82
2024/03/15 12:32:49;;;;;;;0.77;0.77;;;17.90;99.90;;;;;;5118277;28;20440;-82
2024/03/15 12:35:17;;;;;;;1.10;1.00;;;17.70;99.90;;;;;;5118376;28;20446;-82
2024/03/15 12:37:43;;;;;;;1.43;0.70;;;17.60;99.90;;;;;;5122875;28;20462;-82
2024/03/15 12:40:11;;;;;;;2.50;0.70;;;17.50;99.90;;;;;;5121194;28;20442;-82
2024/03/15 12:42:38;;;;;;;0.50;0.50;;;17.50;99.90;;;;;;5120137;28;20521;-82
2024/03/15 12:45:05;;;;;;;0.63;0.53;;;17.40;99.90;;;;;;5120023;28;20447;-82
2024/03/15 12:47:36;;;;;;;1.03;0.87;;;17.30;99.90;;;;;;5119995;28;20490;-82
2024/03/15 12:50:05;;;;;;;0.80;0.80;;;17.10;99.90;;;;;;5121618;28;20431;-82
2024/03/15 12:52:33;;;;;;;0.83;0.57;;;17.00;99.90;;;;;;5121101;28;20445;-82
2024/03/15 12:55:00;;;;;;;0.63;0.63;;;17.00;99.90;;;;;;5128601;28;20438;-82